De Queen, AR

1:53 PM CDT on September 16, 2014 (GMT -0500)
Texarkana Regional-Webb | Change Station
CLOSE
Current Station
Airport
Location: Texarkana,
Elevation: 387 ft
Nearby Weather Stations

Elev 387 ft 33.45 °N, 93.99 °W | Updated 1 hour ago

Clear
Clear
82 °F
Feels Like 86 °F
N
4
Wind Variable Wind from NE

Today
High -- | Low -- °F
--% Chance of Precip.
Yesterday
High -- | Low -- °F
Precip. -- in
7:01 AM 7:22 PM
Last Quarter, 43% visible
Pressure 30.09 in
Visibility 10.0 miles
Clouds Clear
Heat Index 86 °F
Dew Point 70 °F
Humidity 67%
Rainfall 0.00 in
Snow Depth Not available.
UV 9 out of 12
Pollen 9.90 out of 12
Air Quality Not available.
Flu Activity Not available.
METAR KTXK 161753Z 04003KT 10SM CLR 28/21 A3010 RMK AO2 SLP188 T02780211 10283 20206 58013

More Conditions Fewer Conditions

Pressure 30.09 in
Visibility 10.0 miles
Clouds Clear
Heat Index 86 °F
Dew Point 70 °F
Humidity 67%
Rainfall 0.00 in
Snow Depth Not available.
UV 9 out of 12
Pollen 9.90 out of 12
Air Quality Not available.
Flu Activity Not available.
METAR KTXK 161753Z 04003KT 10SM CLR 28/21 A3010 RMK AO2 SLP188 T02780211 10283 20206 58013

More Conditions Fewer Conditions

10-Day Weather Forecast

Almanac

Astronomy

Sep. 16, 2014 Rise Set
Actual Time 7:01 AM CDT 7:22 PM CDT
Civil Twilight 6:36 AM CDT 7:47 PM CDT
Nautical Twilight 6:06 AM CDT 8:16 PM CDT
Astronomical Twilight 5:37 AM CDT 8:46 PM CDT
Moon 12:23 AM CDT 2:35 PM CDT
Length of Visible Light 13h 11m
Length of Day
12h 21m
Tomorrow will be 2m 6s shorter.
Last Quarter, 43% of the Moon is Illuminated
Today
Last Quarter
Sep 24
New
Oct 1
First Quarter
Oct 8
Full
Oct 15
Last Quarter

Today's Extremes

State Highs State Lows

Community

WunderPhotos

Upload Photos

1,753,856 photos uploaded!

WunderBlogs® & News

Nearby

Snow Depth

Station Depth Elevation
No new snow has been reported.

Earthquake Activity

City Distance Mag. Time & Date
No recent earthquake activity has been reported nearby.
Minimum magnitude displayed is 2.5.

Coastal Water Temperatures

Place Temperature
No Stations Reporting

Nearby Weather Stations